Avalon, California
Current Conditions -  °F | °C
As of 7:51 PM on Saturday 25 Oct 2014 (Local Time) from KAVX Reporting Station
Haze Haze  
Wind Chill: 16°   Ceiling: 200
Heat Index: 16°   Visibility: 1.5mi
Dew Point: 15°   Wind: 14mph
Humidity: 93%   Direction: 250°WSW
Pressure: 30.05"   Gusts: NA
Location:  33.34°N, 118.33°W
Report Text: KAVX 260251Z AUTO 25012KT 1 1/2SM BR OVC002 16/15 A3005 RMK AO2 VIS 1V2 1/2 SLP162 T01610150 53001
Loading
Personal Weather Stations






























Interactive Weather Map
Tropical Storm Tracking
New forecast layout! Learn more

10-Day Weather Forecast

Advertisements
Track Severe Weather on mobile